createdAt,value
2018-11-06T00:00:19.789Z,36.20
2018-11-06T00:03:01.778Z,35.05
2018-11-06T00:05:43.470Z,38.00
2018-11-06T00:08:23.521Z,35.20
2018-11-06T00:11:03.450Z,36.42
2018-11-06T00:13:42.792Z,36.28
2018-11-06T00:16:27.937Z,35.73
2018-11-06T00:19:06.400Z,35.88
2018-11-06T00:21:45.389Z,38.13
2018-11-06T00:24:24.859Z,37.23
2018-11-06T00:27:05.496Z,35.50
2018-11-06T00:29:44.740Z,38.35
2018-11-06T00:32:24.032Z,33.40
2018-11-06T00:35:06.642Z,35.17
2018-11-06T00:37:46.640Z,33.35
2018-11-06T00:40:25.581Z,31.25
2018-11-06T00:43:05.348Z,33.50
2018-11-06T00:45:44.211Z,30.25
2018-11-06T00:48:25.152Z,34.40
2018-11-06T00:51:04.797Z,35.17
2018-11-06T00:53:44.614Z,33.50
2018-11-06T00:56:22.869Z,32.73
2018-11-06T00:59:03.542Z,33.45
2018-11-06T01:01:44.361Z,37.75
2018-11-06T01:04:24.753Z,30.60
2018-11-06T01:07:04.155Z,35.28
2018-11-06T01:09:43.375Z,32.67
2018-11-06T01:12:23.028Z,35.17
2018-11-06T01:15:01.139Z,29.98
2018-11-06T01:17:42.661Z,32.28
2018-11-06T01:20:24.549Z,34.92
2018-11-06T01:23:03.568Z,32.67
2018-11-06T01:25:43.481Z,34.53
2018-11-06T01:28:23.849Z,32.23
2018-11-06T01:31:02.517Z,32.58
2018-11-06T01:33:44.134Z,34.58
2018-11-06T01:36:24.550Z,33.02
2018-11-06T01:39:04.866Z,34.70
2018-11-06T01:41:43.879Z,33.28
2018-11-06T01:44:25.196Z,32.00
2018-11-06T01:47:05.740Z,33.35
2018-11-06T01:49:46.451Z,30.82
2018-11-06T01:52:24.972Z,32.15
2018-11-06T01:55:05.212Z,33.23
2018-11-06T01:57:44.279Z,33.92
2018-11-06T02:00:25.969Z,32.90
2018-11-06T02:03:04.961Z,31.35
2018-11-06T02:05:44.583Z,32.42
2018-11-06T02:08:26.641Z,31.62
2018-11-06T02:11:05.514Z,33.58
2018-11-06T02:13:45.151Z,30.40
2018-11-06T02:16:25.663Z,36.08
2018-11-06T02:19:06.607Z,30.80
2018-11-06T02:21:46.424Z,32.73
2018-11-06T02:24:25.465Z,40.98
2018-11-06T02:27:05.581Z,33.42
2018-11-06T02:29:45.498Z,33.10
2018-11-06T02:32:25.861Z,31.73
2018-11-06T02:35:05.831Z,34.70
2018-11-06T02:37:45.747Z,34.03
2018-11-06T02:40:26.638Z,33.53
2018-11-06T02:43:06.479Z,34.58
2018-11-06T02:45:47.846Z,34.25
2018-11-06T02:48:26.643Z,36.05
2018-11-06T02:51:06.640Z,31.87
2018-11-06T02:53:46.641Z,34.20
2018-11-06T02:56:25.986Z,34.27
2018-11-06T02:59:07.377Z,35.20
2018-11-06T03:01:45.843Z,37.83
2018-11-06T03:04:28.459Z,38.20
2018-11-06T03:07:07.852Z,37.40
2018-11-06T03:09:46.640Z,41.55
2018-11-06T03:12:25.779Z,36.58
2018-11-06T03:15:06.652Z,36.40
2018-11-06T03:17:45.837Z,35.92
2018-11-06T03:20:26.510Z,37.08
2018-11-06T03:23:06.641Z,36.17
2018-11-06T03:25:46.641Z,36.77
2018-11-06T03:28:28.230Z,36.90
2018-11-06T03:31:09.040Z,38.13
2018-11-06T03:33:48.161Z,37.20
2018-11-06T03:36:28.956Z,34.45
2018-11-06T03:39:09.993Z,36.30
2018-11-06T03:41:50.661Z,39.40
2018-11-06T03:44:30.157Z,35.23
2018-11-06T03:47:09.243Z,36.77
2018-11-06T03:49:50.184Z,36.60
2018-11-06T03:52:29.200Z,35.00
2018-11-06T03:55:09.740Z,34.10
2018-11-06T03:57:49.207Z,33.92
2018-11-06T04:00:28.075Z,36.40
2018-11-06T04:03:06.145Z,34.05
2018-11-06T04:05:43.268Z,33.88
2018-11-06T04:08:21.698Z,31.85
2018-11-06T04:11:00.487Z,28.52
2018-11-06T04:13:34.111Z,34.92
2018-11-06T04:16:13.255Z,33.45
2018-11-06T04:18:42.969Z,34.18
2018-11-06T04:21:13.780Z,34.65
2018-11-06T04:23:48.885Z,30.55
2018-11-06T04:26:19.189Z,33.10
2018-11-06T04:28:56.640Z,33.02
2018-11-06T04:31:28.686Z,33.18
2018-11-06T04:33:58.536Z,30.57
2018-11-06T04:36:28.596Z,30.40
2018-11-06T04:38:58.938Z,30.62
2018-11-06T04:41:30.554Z,32.90
2018-11-06T04:44:00.456Z,30.05
2018-11-06T04:46:33.484Z,29.85
2018-11-06T04:49:12.412Z,34.73
2018-11-06T04:51:41.989Z,34.65
2018-11-06T04:54:15.150Z,31.70
2018-11-06T04:56:45.421Z,33.42
2018-11-06T04:59:20.404Z,32.25
2018-11-06T05:01:49.716Z,33.08
2018-11-06T05:04:20.514Z,33.90
2018-11-06T05:06:51.473Z,36.35
2018-11-06T05:09:24.092Z,38.13
2018-11-06T05:11:54.051Z,37.88
2018-11-06T05:14:30.003Z,41.28
2018-11-06T05:17:04.520Z,40.17
2018-11-06T05:19:36.094Z,36.28
2018-11-06T05:22:05.984Z,39.10
2018-11-06T05:24:37.247Z,37.53
2018-11-06T05:27:07.030Z,34.88
2018-11-06T05:29:38.100Z,32.13
2018-11-06T05:32:13.219Z,31.77
2018-11-06T05:34:43.365Z,30.12
2018-11-06T05:37:22.734Z,29.77
2018-11-06T05:39:56.832Z,29.70
2018-11-06T05:42:27.768Z,28.73
2018-11-06T05:44:58.171Z,30.57
2018-11-06T05:47:32.176Z,32.15
2018-11-06T05:50:04.660Z,35.95
2018-11-06T05:52:34.010Z,30.65
2018-11-06T05:55:14.820Z,47.20
2018-11-06T05:57:56.640Z,29.02
2018-11-06T06:00:36.737Z,31.50
2018-11-06T06:03:12.167Z,32.17
2018-11-06T06:05:53.361Z,32.78
2018-11-06T06:08:31.999Z,30.52
2018-11-06T06:11:12.846Z,31.57
2018-11-06T06:13:51.633Z,30.72
2018-11-06T06:16:29.674Z,30.15
2018-11-06T06:19:11.067Z,29.90
2018-11-06T06:21:51.658Z,30.57
2018-11-06T06:24:31.529Z,35.48
2018-11-06T06:27:11.889Z,34.58
2018-11-06T06:29:51.136Z,32.95
2018-11-06T06:32:30.736Z,33.02
2018-11-06T06:35:09.818Z,34.45
2018-11-06T06:37:49.510Z,36.95
2018-11-06T06:40:31.746Z,32.15
2018-11-06T06:43:13.138Z,30.90
2018-11-06T06:45:52.330Z,30.90
2018-11-06T06:48:33.422Z,28.10
2018-11-06T06:51:12.555Z,29.57
2018-11-06T06:53:53.239Z,29.70
2018-11-06T06:56:33.511Z,47.20
2018-11-06T06:59:15.963Z,29.80
2018-11-06T07:01:56.252Z,28.62
2018-11-06T07:04:36.619Z,30.80
2018-11-06T07:07:15.264Z,27.70
2018-11-06T07:09:55.875Z,29.67
2018-11-06T07:12:36.646Z,29.00
2018-11-06T07:15:16.640Z,27.73
2018-11-06T07:17:59.075Z,29.63
2018-11-06T07:20:39.863Z,30.15
2018-11-06T07:23:18.578Z,28.57
2018-11-06T07:25:57.943Z,26.70
2018-11-06T07:28:37.313Z,27.95
2018-11-06T07:31:16.642Z,27.80
2018-11-06T07:33:56.471Z,27.40
2018-11-06T07:36:34.416Z,23.47
2018-11-06T07:39:14.230Z,25.90
2018-11-06T07:41:53.095Z,26.48
2018-11-06T07:44:33.512Z,27.37
2018-11-06T07:47:13.852Z,27.42
2018-11-06T07:49:53.994Z,25.32
2018-11-06T07:52:34.207Z,26.05
2018-11-06T07:55:13.476Z,28.17
2018-11-06T07:57:52.942Z,30.02
2018-11-06T08:00:33.530Z,31.62
2018-11-06T08:03:12.390Z,31.60
2018-11-06T08:05:53.393Z,31.60
2018-11-06T08:08:23.995Z,28.12
2018-11-06T08:11:03.585Z,29.87
2018-11-06T08:13:39.734Z,25.25
2018-11-06T08:16:20.220Z,27.80
2018-11-06T08:19:00.125Z,30.27
2018-11-06T08:21:40.415Z,31.27
2018-11-06T08:24:11.738Z,24.32
2018-11-06T08:26:40.536Z,28.73
2018-11-06T08:29:19.390Z,29.00
2018-11-06T08:31:59.856Z,30.05
2018-11-06T08:34:40.438Z,25.37
2018-11-06T08:37:18.870Z,22.32
2018-11-06T08:39:56.642Z,25.88
2018-11-06T08:42:36.685Z,27.15
2018-11-06T08:45:16.111Z,25.10
2018-11-06T08:47:55.944Z,28.45
2018-11-06T08:50:35.301Z,23.10
2018-11-06T08:53:15.113Z,29.52
2018-11-06T08:55:55.129Z,29.00
2018-11-06T08:58:34.770Z,26.27
2018-11-06T09:01:13.787Z,22.40
2018-11-06T09:03:52.998Z,28.27
2018-11-06T09:06:33.370Z,27.55
2018-11-06T09:09:14.162Z,26.12
2018-11-06T09:11:54.908Z,22.10
2018-11-06T09:14:35.250Z,30.27
2018-11-06T09:17:14.662Z,26.77
2018-11-06T09:19:53.764Z,24.15
2018-11-06T09:22:35.215Z,24.70
2018-11-06T09:25:15.011Z,26.07
2018-11-06T09:27:56.374Z,29.37
2018-11-06T09:30:36.295Z,25.85
2018-11-06T09:33:16.383Z,47.45
2018-11-06T09:35:57.600Z,34.27
2018-11-06T09:38:36.641Z,24.95
2018-11-06T09:41:16.660Z,23.42
2018-11-06T09:43:56.600Z,19.57
2018-11-06T09:46:35.166Z,21.07
2018-11-06T09:49:14.999Z,25.08
2018-11-06T09:51:55.676Z,21.57
2018-11-06T09:54:36.539Z,28.45
2018-11-06T09:57:16.356Z,32.13
2018-11-06T09:59:56.030Z,24.80
2018-11-06T10:02:35.891Z,21.57
2018-11-06T10:05:17.901Z,30.27
2018-11-06T10:07:58.060Z,24.32
2018-11-06T10:10:37.787Z,28.30
2018-11-06T10:13:16.640Z,20.72
2018-11-06T10:15:56.641Z,23.27
2018-11-06T10:18:36.641Z,23.45
2018-11-06T10:21:15.794Z,26.17
2018-11-06T10:23:55.928Z,22.58
2018-11-06T10:26:37.387Z,30.23
2018-11-06T10:29:16.641Z,26.48
2018-11-06T10:31:55.795Z,22.17
2018-11-06T10:34:35.812Z,27.77
2018-11-06T10:37:15.955Z,22.93
2018-11-06T10:39:54.168Z,21.23
2018-11-06T10:42:32.312Z,21.65
2018-11-06T10:45:12.775Z,21.70
2018-11-06T10:47:53.366Z,23.05
2018-11-06T10:50:33.160Z,20.77
2018-11-06T10:53:12.453Z,18.85
2018-11-06T10:55:52.820Z,20.08
2018-11-06T10:58:32.562Z,21.42
2018-11-06T11:01:17.802Z,22.02
2018-11-06T11:03:58.428Z,15.90
2018-11-06T11:06:39.010Z,19.27
2018-11-06T11:09:18.579Z,21.95
2018-11-06T11:11:59.067Z,20.02
2018-11-06T11:14:40.710Z,18.75
2018-11-06T11:17:20.748Z,23.52
2018-11-06T11:20:00.382Z,20.23
2018-11-06T11:22:39.100Z,19.57
2018-11-06T11:25:20.178Z,17.92
2018-11-06T11:27:58.267Z,18.98
2018-11-06T11:30:37.533Z,17.52
2018-11-06T11:33:16.642Z,16.93
2018-11-06T11:35:56.345Z,18.02
2018-11-06T11:38:36.640Z,19.32
2018-11-06T11:41:15.400Z,19.55
2018-11-06T11:43:55.818Z,17.37
2018-11-06T11:46:35.708Z,15.20
2018-11-06T11:49:14.975Z,19.17
2018-11-06T11:51:55.244Z,17.25
2018-11-06T11:54:37.710Z,14.85
2018-11-06T11:57:17.602Z,15.93
2018-11-06T11:59:59.282Z,16.25
2018-11-06T12:02:38.114Z,15.05
2018-11-06T12:05:18.929Z,13.98
2018-11-06T12:08:00.667Z,15.15
2018-11-06T12:10:32.515Z,12.50
2018-11-06T12:13:00.760Z,12.88
2018-11-06T12:15:29.747Z,12.98
2018-11-06T12:18:01.468Z,14.75
2018-11-06T12:20:32.482Z,12.45
2018-11-06T12:23:00.773Z,11.97
2018-11-06T12:25:29.274Z,15.25
2018-11-06T12:27:58.555Z,16.40
2018-11-06T12:30:36.917Z,10.63
2018-11-06T12:33:15.043Z,10.43
2018-11-06T12:35:55.409Z,10.53
2018-11-06T12:38:23.649Z,9.68
2018-11-06T12:41:02.553Z,8.15
2018-11-06T12:43:42.524Z,8.25
2018-11-06T12:46:22.953Z,13.30
2018-11-06T12:49:02.541Z,9.95
2018-11-06T12:51:42.361Z,7.75
2018-11-06T12:54:23.729Z,8.03
2018-11-06T12:56:57.372Z,8.60
2018-11-06T12:59:27.154Z,11.85
2018-11-06T13:01:57.366Z,6.20
2018-11-06T13:04:27.138Z,9.25
2018-11-06T13:06:56.800Z,8.50
2018-11-06T13:09:35.819Z,6.30
2018-11-06T13:12:16.642Z,9.60
2018-11-06T13:14:57.237Z,6.55
2018-11-06T13:17:37.455Z,5.58
2018-11-06T13:20:19.623Z,9.53
2018-11-06T13:22:58.719Z,6.67
2018-11-06T13:25:37.638Z,7.92
2018-11-06T13:28:16.298Z,7.60
2018-11-06T13:30:55.194Z,7.20
2018-11-06T13:33:34.935Z,8.28
2018-11-06T13:36:15.773Z,8.00
2018-11-06T13:38:56.642Z,8.55
2018-11-06T13:41:33.271Z,11.97
2018-11-06T13:44:10.880Z,9.08
2018-11-06T13:46:50.466Z,10.65
2018-11-06T13:49:20.644Z,8.93
2018-11-06T13:51:56.654Z,9.85
2018-11-06T13:54:35.519Z,8.25
2018-11-06T13:57:15.036Z,8.40
2018-11-06T13:59:44.799Z,18.20
2018-11-06T14:02:25.693Z,8.20
2018-11-06T14:05:00.786Z,8.00
2018-11-06T14:07:42.506Z,9.50
2018-11-06T14:10:20.843Z,24.35
2018-11-06T14:13:00.285Z,9.15
2018-11-06T14:15:40.153Z,8.13
2018-11-06T14:18:24.767Z,6.40
2018-11-06T14:21:04.309Z,9.20
2018-11-06T14:23:45.027Z,14.70
2018-11-06T14:26:25.145Z,7.58
2018-11-06T14:28:53.759Z,9.33
2018-11-06T14:31:32.323Z,66.95
2018-11-06T14:34:07.783Z,13.28
2018-11-06T14:36:49.713Z,11.10
2018-11-06T14:39:28.814Z,9.58
2018-11-06T14:42:09.223Z,9.58
2018-11-06T14:44:50.063Z,7.80
2018-11-06T14:47:30.080Z,11.55
2018-11-06T14:50:08.321Z,8.65
2018-11-06T14:52:47.660Z,14.90
2018-11-06T14:55:26.644Z,12.50
2018-11-06T14:58:03.019Z,10.23
2018-11-06T15:00:42.813Z,8.03
2018-11-06T15:03:22.677Z,13.60
2018-11-06T15:05:51.501Z,10.25
2018-11-06T15:08:31.814Z,12.75
2018-11-06T15:11:11.052Z,11.75
2018-11-06T15:13:46.646Z,11.55
2018-11-06T15:16:21.411Z,11.38
2018-11-06T15:19:01.255Z,15.68
2018-11-06T15:21:40.471Z,10.03
2018-11-06T15:24:18.964Z,13.48
2018-11-06T15:27:00.703Z,11.20
2018-11-06T15:29:39.769Z,10.43
2018-11-06T15:32:20.401Z,13.15
2018-11-06T15:34:59.304Z,11.60
2018-11-06T15:37:38.972Z,25.00
2018-11-06T15:40:22.611Z,15.20
2018-11-06T15:43:02.705Z,13.13
2018-11-06T15:45:42.772Z,12.53
2018-11-06T15:48:23.328Z,20.45
2018-11-06T15:51:03.255Z,16.85
2018-11-06T15:53:39.702Z,13.85
2018-11-06T15:56:22.587Z,13.30
2018-11-06T15:58:59.877Z,13.68
2018-11-06T16:01:42.938Z,14.13
2018-11-06T16:04:22.712Z,13.68
2018-11-06T16:07:02.863Z,15.80
2018-11-06T16:09:41.795Z,15.70
2018-11-06T16:12:21.785Z,18.07
2018-11-06T16:15:02.651Z,17.42
2018-11-06T16:17:43.144Z,19.87
2018-11-06T16:20:13.502Z,18.15
2018-11-06T16:22:55.068Z,22.40
2018-11-06T16:25:35.367Z,15.93
2018-11-06T16:28:13.809Z,17.07
2018-11-06T16:30:53.152Z,17.70
2018-11-06T16:33:32.819Z,18.73
2018-11-06T16:36:12.186Z,14.63
2018-11-06T16:38:51.474Z,15.15
2018-11-06T16:41:28.701Z,13.98
2018-11-06T16:44:06.643Z,17.73
2018-11-06T16:46:46.575Z,18.67
2018-11-06T16:49:26.643Z,15.83
2018-11-06T16:52:05.380Z,16.85
2018-11-06T16:54:45.149Z,16.90
2018-11-06T16:57:24.693Z,17.27
2018-11-06T17:00:03.142Z,17.52
2018-11-06T17:02:42.628Z,19.12
2018-11-06T17:05:24.142Z,24.57
2018-11-06T17:08:03.133Z,21.73
2018-11-06T17:10:40.263Z,21.37
2018-11-06T17:13:22.068Z,27.50
2018-11-06T17:16:00.170Z,38.10
2018-11-06T17:18:38.001Z,36.98
2018-11-06T17:21:17.817Z,21.23
2018-11-06T17:23:56.643Z,20.48
2018-11-06T17:26:36.644Z,20.68
2018-11-06T17:29:15.914Z,25.17
2018-11-06T17:31:53.158Z,20.60
2018-11-06T17:34:33.424Z,21.60
2018-11-06T17:37:13.717Z,19.27
2018-11-06T17:39:53.234Z,18.45
2018-11-06T17:42:32.975Z,16.55
2018-11-06T17:45:11.826Z,18.70
2018-11-06T17:47:52.608Z,20.92
2018-11-06T17:50:34.274Z,24.37
2018-11-06T17:53:14.138Z,33.90
2018-11-06T17:55:50.454Z,19.00
2018-11-06T17:58:30.698Z,23.87
2018-11-06T18:01:09.862Z,23.83
2018-11-06T18:03:48.929Z,21.68
2018-11-06T18:06:29.349Z,22.70
2018-11-06T18:09:10.436Z,17.95
2018-11-06T18:11:50.530Z,23.07
2018-11-06T18:14:29.903Z,22.02
2018-11-06T18:17:08.792Z,29.52
2018-11-06T18:19:48.806Z,32.23
2018-11-06T18:22:26.643Z,24.50
2018-11-06T18:25:03.949Z,22.27
2018-11-06T18:27:43.082Z,25.62
2018-11-06T18:30:25.913Z,23.87
2018-11-06T18:33:08.774Z,26.55
2018-11-06T18:35:49.155Z,27.27
2018-11-06T18:38:28.903Z,26.10
2018-11-06T18:41:10.737Z,24.55
2018-11-06T18:43:46.158Z,22.85
2018-11-06T18:46:27.301Z,23.05
2018-11-06T18:49:06.644Z,23.20
2018-11-06T18:51:45.253Z,22.10
2018-11-06T18:54:23.721Z,30.35
2018-11-06T18:57:02.460Z,26.85
2018-11-06T18:59:42.602Z,34.80
2018-11-06T19:02:21.318Z,34.67
2018-11-06T19:05:00.561Z,34.85
2018-11-06T19:07:39.852Z,33.70
2018-11-06T19:10:15.816Z,29.87
2018-11-06T19:12:55.457Z,29.72
2018-11-06T19:15:33.498Z,34.60
2018-11-06T19:18:16.644Z,45.73
2018-11-06T19:20:56.432Z,32.05
2018-11-06T19:23:34.676Z,26.80
2018-11-06T19:26:13.864Z,31.45
2018-11-06T19:28:55.135Z,23.05
2018-11-06T19:31:33.726Z,39.45
2018-11-06T19:34:11.891Z,33.92
2018-11-06T19:36:51.635Z,36.23
2018-11-06T19:39:32.950Z,32.25
2018-11-06T19:42:11.901Z,30.80
2018-11-06T19:44:51.409Z,30.75
2018-11-06T19:47:31.200Z,30.88
2018-11-06T19:50:11.338Z,37.20
2018-11-06T19:52:50.766Z,38.17
2018-11-06T19:55:31.748Z,39.13
2018-11-06T19:58:14.640Z,33.00
2018-11-06T20:00:56.655Z,40.25
2018-11-06T20:03:36.692Z,42.10
2018-11-06T20:06:16.637Z,35.85
2018-11-06T20:08:56.643Z,32.85
2018-11-06T20:11:34.649Z,33.70
2018-11-06T20:14:16.485Z,38.88
2018-11-06T20:16:56.030Z,34.70
2018-11-06T20:19:34.679Z,37.85
2018-11-06T20:22:13.262Z,47.55
2018-11-06T20:24:52.452Z,46.68
2018-11-06T20:27:31.795Z,47.67
2018-11-06T20:30:12.138Z,59.08
2018-11-06T20:32:53.427Z,54.10
2018-11-06T20:35:33.764Z,57.17
2018-11-06T20:38:13.937Z,39.60
2018-11-06T20:40:52.927Z,34.33
2018-11-06T20:43:31.469Z,40.58
2018-11-06T20:46:11.103Z,31.93
2018-11-06T20:48:50.825Z,28.45
2018-11-06T20:51:33.240Z,36.08
2018-11-06T20:54:11.884Z,36.10
2018-11-06T20:56:54.180Z,36.15
2018-11-06T20:59:28.673Z,38.02
2018-11-06T21:02:10.810Z,50.17
2018-11-06T21:04:45.798Z,64.95
2018-11-06T21:07:26.596Z,57.13
2018-11-06T21:10:04.336Z,50.85
2018-11-06T21:12:44.625Z,46.68
2018-11-06T21:15:23.869Z,42.85
2018-11-06T21:18:03.260Z,35.73
2018-11-06T21:20:42.720Z,41.58
2018-11-06T21:23:23.215Z,40.55
2018-11-06T21:26:02.981Z,40.05
2018-11-06T21:28:43.823Z,32.35
2018-11-06T21:31:23.179Z,31.12
2018-11-06T21:34:03.306Z,34.23
2018-11-06T21:36:43.047Z,42.03
2018-11-06T21:39:23.381Z,43.90
2018-11-06T21:42:02.229Z,44.30
2018-11-06T21:44:42.996Z,48.63
2018-11-06T21:47:21.412Z,48.60
2018-11-06T21:50:01.753Z,47.55
2018-11-06T21:52:41.597Z,41.85
2018-11-06T21:55:21.859Z,30.17
2018-11-06T21:58:01.855Z,40.48
2018-11-06T22:00:41.925Z,37.88
2018-11-06T22:03:19.684Z,42.30
2018-11-06T22:05:59.225Z,42.03
2018-11-06T22:08:38.316Z,41.42
2018-11-06T22:11:18.853Z,39.50
2018-11-06T22:13:58.276Z,35.90
2018-11-06T22:16:39.365Z,37.50
2018-11-06T22:19:18.584Z,35.03
2018-11-06T22:21:58.026Z,33.58
2018-11-06T22:24:37.740Z,34.80
2018-11-06T22:27:16.668Z,42.17
2018-11-06T22:29:55.955Z,36.88
2018-11-06T22:32:35.987Z,36.68
2018-11-06T22:35:16.004Z,41.68
2018-11-06T22:37:53.452Z,38.00
2018-11-06T22:40:34.488Z,35.45
2018-11-06T22:43:13.749Z,35.28
2018-11-06T22:45:55.094Z,33.75
2018-11-06T22:48:35.437Z,36.90
2018-11-06T22:51:14.807Z,44.42
2018-11-06T22:53:55.823Z,33.70
2018-11-06T22:56:36.638Z,35.60
2018-11-06T22:59:16.643Z,38.42
2018-11-06T23:01:54.920Z,37.33
2018-11-06T23:04:35.089Z,40.58
2018-11-06T23:07:16.711Z,41.08
2018-11-06T23:09:56.642Z,39.88
2018-11-06T23:12:36.642Z,35.28
2018-11-06T23:15:14.524Z,38.42
2018-11-06T23:17:55.643Z,34.08
2018-11-06T23:20:34.883Z,37.65
2018-11-06T23:23:16.423Z,35.03
2018-11-06T23:25:50.228Z,34.75
2018-11-06T23:28:28.955Z,35.30
2018-11-06T23:31:03.324Z,50.73
2018-11-06T23:33:43.341Z,44.85
2018-11-06T23:36:23.132Z,41.45
2018-11-06T23:39:02.996Z,38.35
2018-11-06T23:41:41.891Z,42.35
2018-11-06T23:44:20.379Z,40.33
2018-11-06T23:46:59.595Z,41.63
2018-11-06T23:49:40.286Z,39.58
2018-11-06T23:52:20.901Z,44.67
2018-11-06T23:55:03.556Z,38.67
2018-11-06T23:57:43.889Z,44.13
